Time;durP1;ratioP1;P1;durP2;ratioP2;P2;SDS_P1;SDS_P2;PMS_P1;PMS_P2;Temp;Humidity;BMP_temperature;BMP_pressure;BME280_temperature;BME280_humidity;BME280_pressure;Samples;Min_cycle;Max_cycle;Signal;HPM_P1;HPM_P2
2021/01/24 00:00:11;;;;;;;20.27;15.80;;;2.10;89.10;;;;;;5029747;28;20464;-83
2021/01/24 00:02:37;;;;;;;17.73;14.13;;;2.10;89.10;;;;;;5017330;28;20455;-84
2021/01/24 00:05:05;;;;;;;18.50;14.30;;;2.10;88.90;;;;;;5020768;28;20454;-84
2021/01/24 00:07:33;;;;;;;17.53;14.27;;;2.10;88.70;;;;;;5014669;28;20475;-84
2021/01/24 00:09:59;;;;;;;20.03;15.00;;;2.10;89.00;;;;;;5024818;28;20450;-84
2021/01/24 00:12:26;;;;;;;16.87;13.50;;;2.10;88.40;;;;;;5019364;28;20472;-85
2021/01/24 00:14:52;;;;;;;21.00;13.63;;;2.30;89.30;;;;;;5027235;28;20451;-87
2021/01/24 00:17:19;;;;;;;18.00;14.30;;;2.20;88.00;;;;;;5024708;28;20555;-83
2021/01/24 00:19:46;;;;;;;17.70;13.67;;;2.20;87.30;;;;;;5015051;28;20461;-84
2021/01/24 00:22:12;;;;;;;18.23;13.90;;;2.20;87.70;;;;;;5021552;28;20472;-83
2021/01/24 00:24:39;;;;;;;15.93;12.67;;;2.20;87.40;;;;;;5022960;28;20484;-84
2021/01/24 00:27:06;;;;;;;18.10;13.40;;;2.20;87.30;;;;;;5019413;28;20445;-84
2021/01/24 00:29:32;;;;;;;18.07;13.30;;;2.20;86.70;;;;;;5017045;28;20470;-83
2021/01/24 00:31:59;;;;;;;15.90;12.47;;;2.20;87.10;;;;;;5017618;28;20454;-84
2021/01/24 00:34:26;;;;;;;18.90;14.37;;;2.20;87.40;;;;;;5022005;28;20462;-87
2021/01/24 00:36:53;;;;;;;16.93;13.20;;;2.20;87.30;;;;;;5024986;28;20467;-85
2021/01/24 00:39:19;;;;;;;18.00;13.30;;;2.20;86.30;;;;;;5017326;28;20485;-83
2021/01/24 00:41:46;;;;;;;16.17;12.80;;;2.20;86.50;;;;;;5019533;28;20466;-83
2021/01/24 00:44:13;;;;;;;17.13;12.43;;;2.10;86.60;;;;;;5026792;28;20484;-83
2021/01/24 00:46:40;;;;;;;14.77;13.13;;;2.20;86.90;;;;;;5021230;28;20454;-83
2021/01/24 00:49:06;;;;;;;15.23;12.63;;;2.10;86.20;;;;;;5019599;28;20504;-84
2021/01/24 00:51:33;;;;;;;14.60;11.90;;;2.10;85.80;;;;;;5017229;28;20999;-84
2021/01/24 00:53:59;;;;;;;16.50;13.87;;;2.10;85.90;;;;;;5026331;28;20437;-87
2021/01/24 00:56:26;;;;;;;16.80;12.60;;;2.10;85.60;;;;;;5016119;28;20462;-84
2021/01/24 00:58:53;;;;;;;14.47;12.00;;;2.20;87.70;;;;;;5021577;28;20468;-84
2021/01/24 01:01:20;;;;;;;17.80;13.90;;;2.20;85.00;;;;;;5015922;28;20468;-87
2021/01/24 01:03:46;;;;;;;13.67;12.20;;;2.30;85.10;;;;;;5034392;28;20478;-89
2021/01/24 01:06:13;;;;;;;16.50;13.07;;;2.20;85.90;;;;;;5031814;28;20451;-85
2021/01/24 01:08:39;;;;;;;19.07;13.33;;;2.20;84.50;;;;;;5034870;28;20509;-85
2021/01/24 01:11:06;;;;;;;15.73;12.43;;;2.20;84.50;;;;;;5019754;28;20463;-84
2021/01/24 01:13:32;;;;;;;18.53;14.00;;;2.20;84.50;;;;;;5020248;28;21059;-84
2021/01/24 01:16:01;;;;;;;17.00;12.30;;;2.30;84.20;;;;;;5023424;28;20447;-84
2021/01/24 01:18:27;;;;;;;15.63;13.10;;;2.30;84.00;;;;;;5027321;28;20501;-87
2021/01/24 01:20:54;;;;;;;15.20;12.10;;;2.30;83.80;;;;;;5027381;28;20838;-83
2021/01/24 01:23:21;;;;;;;14.43;12.43;;;2.40;84.10;;;;;;5038518;28;20455;-88
2021/01/24 01:25:47;;;;;;;14.70;12.40;;;2.40;83.10;;;;;;5036201;28;20458;-83
2021/01/24 01:28:14;;;;;;;15.37;12.00;;;2.40;84.00;;;;;;5033072;28;20468;-86
2021/01/24 01:30:40;;;;;;;17.00;12.47;;;2.40;83.00;;;;;;5030854;28;20454;-89
2021/01/24 01:33:07;;;;;;;14.73;12.47;;;2.40;82.80;;;;;;5035408;28;20455;-84
2021/01/24 01:35:34;;;;;;;15.27;12.63;;;2.50;82.90;;;;;;5027680;28;20565;-83
2021/01/24 01:38:00;;;;;;;14.30;11.53;;;2.50;82.70;;;;;;5017755;28;20484;-86
2021/01/24 01:40:27;;;;;;;16.50;13.33;;;2.50;82.30;;;;;;5016115;28;20509;-84
2021/01/24 01:42:53;;;;;;;16.60;11.53;;;2.50;82.60;;;;;;5016827;28;20876;-85
2021/01/24 01:45:19;;;;;;;13.93;12.30;;;2.50;82.90;;;;;;5013462;28;20560;-85
2021/01/24 01:47:46;;;;;;;15.60;12.00;;;2.50;82.40;;;;;;5011549;28;20603;-84
2021/01/24 01:50:16;;;;;;;16.17;12.67;;;2.40;82.70;;;;;;5013722;28;20505;-86
2021/01/24 01:52:43;;;;;;;15.10;13.30;;;2.40;83.80;;;;;;5011455;28;20469;-84
2021/01/24 01:55:10;;;;;;;19.47;14.20;;;2.30;84.70;;;;;;5020065;28;20973;-84
2021/01/24 01:57:36;;;;;;;16.47;13.50;;;2.20;86.80;;;;;;5022643;28;20455;-84
2021/01/24 02:00:06;;;;;;;18.00;15.03;;;2.20;88.50;;;;;;5018719;28;20462;-84
2021/01/24 02:02:47;;;;;;;19.00;13.23;;;2.10;88.70;;;;;;5014772;28;20459;-86
2021/01/24 02:05:22;;;;;;;15.97;13.00;;;2.10;90.20;;;;;;5022264;28;21154;-84
2021/01/24 02:07:59;;;;;;;19.77;15.00;;;2.00;91.40;;;;;;5019625;28;20879;-84
2021/01/24 02:10:30;;;;;;;17.23;14.57;;;1.90;92.00;;;;;;5021660;28;20478;-84
2021/01/24 02:13:02;;;;;;;22.80;14.80;;;2.00;92.50;;;;;;5017978;28;21018;-84
2021/01/24 02:15:32;;;;;;;19.10;15.73;;;1.90;94.00;;;;;;5016920;28;21047;-87
2021/01/24 02:18:02;;;;;;;19.77;15.77;;;1.90;93.50;;;;;;5016124;28;20469;-83
2021/01/24 02:20:39;;;;;;;22.50;17.03;;;1.90;94.10;;;;;;5020284;28;20448;-84
2021/01/24 02:23:08;;;;;;;19.40;15.23;;;1.90;94.40;;;;;;5022629;28;20477;-85
2021/01/24 02:25:43;;;;;;;18.93;15.37;;;1.80;94.60;;;;;;5027979;28;20446;-84
2021/01/24 02:28:20;;;;;;;21.50;17.53;;;1.90;95.20;;;;;;5018658;28;20568;-85
2021/01/24 02:30:48;;;;;;;20.87;17.67;;;1.80;94.80;;;;;;5019357;28;21121;-83
2021/01/24 02:33:19;;;;;;;19.77;15.97;;;1.80;95.60;;;;;;5016809;28;20459;-85
2021/01/24 02:35:50;;;;;;;25.33;18.40;;;1.80;95.90;;;;;;5017573;28;20462;-84
2021/01/24 02:38:18;;;;;;;24.50;18.13;;;1.80;95.60;;;;;;5019400;28;20561;-87
2021/01/24 02:40:45;;;;;;;24.67;18.70;;;1.80;97.50;;;;;;5019505;28;20536;-87
2021/01/24 02:43:13;;;;;;;24.10;16.90;;;1.80;96.20;;;;;;5022107;28;20496;-84
2021/01/24 02:45:43;;;;;;;21.20;17.67;;;1.70;96.70;;;;;;5016279;28;20455;-83
2021/01/24 02:48:12;;;;;;;22.63;17.80;;;1.80;96.80;;;;;;5018075;28;20461;-84
2021/01/24 02:50:40;;;;;;;23.40;17.70;;;1.70;97.20;;;;;;5014362;28;20465;-83
2021/01/24 02:53:07;;;;;;;24.57;18.93;;;1.70;96.90;;;;;;5015838;28;20528;-83
2021/01/24 02:55:33;;;;;;;21.87;18.37;;;1.80;97.70;;;;;;5022059;28;20462;-84
2021/01/24 02:58:01;;;;;;;23.67;19.53;;;1.70;97.90;;;;;;5020694;28;20465;-82
2021/01/24 03:00:28;;;;;;;26.20;20.10;;;1.70;98.20;;;;;;5022280;28;20467;-81
2021/01/24 03:02:56;;;;;;;25.00;19.50;;;1.70;98.60;;;;;;5023787;28;20477;-82
2021/01/24 03:05:23;;;;;;;24.90;19.70;;;1.80;98.30;;;;;;5018989;28;20473;-83
2021/01/24 03:07:51;;;;;;;25.43;19.73;;;1.80;97.70;;;;;;5018476;28;20482;-83
2021/01/24 03:10:18;;;;;;;24.57;19.10;;;1.80;97.00;;;;;;5015152;28;21002;-86
2021/01/24 03:12:51;;;;;;;24.20;18.70;;;1.80;98.00;;;;;;5026555;28;20488;-83
2021/01/24 03:15:21;;;;;;;25.13;18.37;;;1.80;97.20;;;;;;5023007;28;20541;-84
2021/01/24 03:17:49;;;;;;;27.87;20.93;;;1.80;96.90;;;;;;5027585;28;20602;-86
2021/01/24 03:20:17;;;;;;;24.57;19.10;;;1.70;96.50;;;;;;5022756;28;20509;-83
2021/01/24 03:22:45;;;;;;;25.77;20.77;;;1.80;98.90;;;;;;5030133;28;20498;-82
2021/01/24 03:25:15;;;;;;;27.73;21.57;;;1.70;97.10;;;;;;5024460;28;21045;-87
2021/01/24 03:27:41;;;;;;;28.27;20.57;;;1.90;99.80;;;;;;5020366;28;20462;-82
2021/01/24 03:30:11;;;;;;;26.77;21.30;;;1.90;97.30;;;;;;5016621;28;20851;-81
2021/01/24 03:32:37;;;;;;;25.37;19.00;;;1.80;97.90;;;;;;5021847;28;20455;-84
2021/01/24 03:35:05;;;;;;;27.10;21.30;;;1.80;98.80;;;;;;5023475;28;20516;-84
2021/01/24 03:37:31;;;;;;;25.77;20.90;;;1.90;98.00;;;;;;5023550;28;20486;-82
2021/01/24 03:39:59;;;;;;;23.90;20.13;;;1.80;98.10;;;;;;5020980;28;20607;-82
2021/01/24 03:42:28;;;;;;;28.03;21.17;;;1.80;97.80;;;;;;5021096;28;20522;-83
2021/01/24 03:44:54;;;;;;;26.40;20.40;;;1.80;98.30;;;;;;5017108;28;20447;-84
2021/01/24 03:47:21;;;;;;;26.90;21.20;;;1.80;99.40;;;;;;5020052;28;20489;-83
2021/01/24 03:49:47;;;;;;;27.63;21.70;;;1.80;98.00;;;;;;5019331;28;20513;-83
2021/01/24 03:52:14;;;;;;;28.87;20.87;;;1.80;98.40;;;;;;5016198;28;20573;-83
2021/01/24 03:54:40;;;;;;;24.33;19.57;;;1.70;98.80;;;;;;5019496;28;20478;-83
2021/01/24 03:57:08;;;;;;;26.40;20.33;;;1.70;99.90;;;;;;5013665;28;20462;-83
2021/01/24 03:59:34;;;;;;;27.03;21.30;;;1.60;99.90;;;;;;5011661;28;20489;-83
2021/01/24 04:02:01;;;;;;;29.00;22.10;;;1.60;99.90;;;;;;5012652;28;20557;-84
2021/01/24 04:04:27;;;;;;;28.00;21.70;;;1.80;99.90;;;;;;5016793;28;20449;-83
2021/01/24 04:06:54;;;;;;;25.30;20.77;;;1.80;99.90;;;;;;5014506;28;20836;-84
2021/01/24 04:09:20;;;;;;;24.77;20.50;;;1.70;99.90;;;;;;5015328;28;20438;-82
2021/01/24 04:11:46;;;;;;;27.53;20.83;;;1.80;99.90;;;;;;5025962;28;20534;-87
2021/01/24 04:14:14;;;;;;;29.50;21.93;;;1.70;99.90;;;;;;5026102;28;20466;-84
2021/01/24 04:16:40;;;;;;;28.77;21.03;;;1.70;99.90;;;;;;5020687;28;20479;-82
2021/01/24 04:19:07;;;;;;;30.63;22.90;;;1.70;99.90;;;;;;5015989;28;20476;-83
2021/01/24 04:21:33;;;;;;;29.70;21.97;;;1.70;99.90;;;;;;5020868;28;20462;-84
2021/01/24 04:23:59;;;;;;;26.60;20.47;;;1.70;99.90;;;;;;5017204;28;20456;-83
2021/01/24 04:26:26;;;;;;;26.50;20.57;;;1.70;99.90;;;;;;5017197;28;20537;-83
2021/01/24 04:28:52;;;;;;;28.40;21.90;;;1.90;99.90;;;;;;5019177;28;20475;-86
2021/01/24 04:31:20;;;;;;;25.20;20.03;;;1.70;99.00;;;;;;5023585;28;20520;-85
2021/01/24 04:33:46;;;;;;;27.10;20.70;;;1.80;99.90;;;;;;5035103;28;20449;-87
2021/01/24 04:36:13;;;;;;;26.50;19.50;;;1.80;99.90;;;;;;5037910;28;20461;-88
2021/01/24 04:38:39;;;;;;;25.97;20.90;;;1.80;98.80;;;;;;5031322;28;20621;-83
2021/01/24 04:41:06;;;;;;;26.87;20.30;;;1.90;98.80;;;;;;5024282;28;20458;-84
2021/01/24 04:43:34;;;;;;;22.20;18.60;;;1.90;97.90;;;;;;5020003;28;20490;-84
2021/01/24 04:46:01;;;;;;;25.23;20.47;;;1.90;96.70;;;;;;5029059;28;20518;-83
2021/01/24 04:48:29;;;;;;;19.47;16.50;;;2.00;97.40;;;;;;5025914;28;20455;-86
2021/01/24 04:50:56;;;;;;;18.77;16.37;;;2.00;96.20;;;;;;5025671;28;20453;-83
2021/01/24 04:53:23;;;;;;;23.23;18.37;;;2.00;95.70;;;;;;5023048;28;20521;-82
2021/01/24 04:55:51;;;;;;;21.40;16.70;;;2.00;95.70;;;;;;5026887;28;20502;-86
2021/01/24 04:58:18;;;;;;;20.23;16.70;;;2.00;95.70;;;;;;5032706;28;20501;-84
2021/01/24 05:00:44;;;;;;;21.20;16.33;;;2.00;95.60;;;;;;5022033;28;20466;-86
2021/01/24 05:03:12;;;;;;;18.60;15.37;;;1.90;95.60;;;;;;5021849;28;20550;-83
2021/01/24 05:05:39;;;;;;;16.20;13.40;;;1.90;95.50;;;;;;5020817;28;20455;-85
2021/01/24 05:08:09;;;;;;;11.87;10.07;;;2.00;95.20;;;;;;5027238;28;20448;-85
2021/01/24 05:10:36;;;;;;;12.30;10.57;;;1.90;93.70;;;;;;5018663;28;20466;-84
2021/01/24 05:13:02;;;;;;;10.40;8.37;;;1.90;93.30;;;;;;5016197;28;21032;-84
2021/01/24 05:15:29;;;;;;;7.90;7.10;;;1.90;93.50;;;;;;5015615;28;20575;-83
2021/01/24 05:17:57;;;;;;;5.50;4.83;;;1.90;93.60;;;;;;5026070;28;20458;-85
2021/01/24 05:20:27;;;;;;;4.50;4.10;;;1.80;93.90;;;;;;5032037;28;20446;-85
2021/01/24 05:22:55;;;;;;;4.13;3.70;;;1.60;95.60;;;;;;5025298;28;20455;-81
2021/01/24 05:25:26;;;;;;;3.83;3.53;;;1.60;96.90;;;;;;5018376;28;21122;-84
2021/01/24 05:27:53;;;;;;;2.70;2.50;;;1.60;97.50;;;;;;5018812;28;20447;-82
2021/01/24 05:30:29;;;;;;;2.50;2.30;;;1.70;95.00;;;;;;5019849;28;20478;-83
2021/01/24 05:32:58;;;;;;;2.67;2.47;;;1.60;94.00;;;;;;5032038;28;20450;-85
2021/01/24 05:35:25;;;;;;;2.67;2.47;;;1.60;93.90;;;;;;5028966;28;20439;-86
2021/01/24 05:37:52;;;;;;;2.40;2.20;;;1.60;93.00;;;;;;5027255;28;20472;-82
2021/01/24 05:40:20;;;;;;;2.40;2.10;;;1.60;93.60;;;;;;5024307;28;20462;-84
2021/01/24 05:42:47;;;;;;;2.83;2.63;;;1.60;92.70;;;;;;5035823;28;20450;-86
2021/01/24 05:45:17;;;;;;;2.10;1.90;;;1.60;92.70;;;;;;5027716;28;20455;-85
2021/01/24 05:47:45;;;;;;;2.60;2.40;;;1.50;92.10;;;;;;5030426;28;20490;-85
2021/01/24 05:50:13;;;;;;;4.10;2.80;;;1.50;91.60;;;;;;5029574;28;20440;-83
2021/01/24 05:52:41;;;;;;;3.30;2.73;;;1.50;92.00;;;;;;5036608;28;20468;-83
2021/01/24 05:55:09;;;;;;;3.40;3.10;;;1.50;91.10;;;;;;5028746;28;20447;-83
2021/01/24 05:57:40;;;;;;;2.80;2.60;;;1.50;91.50;;;;;;5025798;28;20451;-83
2021/01/24 06:00:08;;;;;;;3.37;3.17;;;1.50;91.60;;;;;;5019691;28;20557;-82
2021/01/24 06:02:37;;;;;;;2.90;2.70;;;1.50;92.50;;;;;;5024606;28;20458;-84
2021/01/24 06:05:05;;;;;;;2.80;2.50;;;1.50;92.90;;;;;;5012054;28;20466;-85
2021/01/24 06:07:34;;;;;;;4.20;3.27;;;1.40;92.50;;;;;;5015956;28;20502;-84
2021/01/24 06:10:00;;;;;;;3.40;3.10;;;1.40;91.60;;;;;;5016921;28;20464;-86
2021/01/24 06:12:30;;;;;;;4.30;3.90;;;1.40;91.30;;;;;;5020339;28;20506;-84
2021/01/24 06:15:03;;;;;;;4.50;3.80;;;1.40;91.70;;;;;;5022627;28;20483;-83
2021/01/24 06:17:31;;;;;;;6.10;4.30;;;1.40;92.50;;;;;;5016508;28;20461;-83
2021/01/24 06:20:00;;;;;;;3.60;3.30;;;1.30;91.90;;;;;;5018120;28;20873;-84
2021/01/24 06:22:33;;;;;;;6.10;5.00;;;1.30;92.20;;;;;;5019764;28;20484;-85
2021/01/24 06:25:05;;;;;;;7.47;5.50;;;1.30;92.00;;;;;;5015135;28;20446;-84
2021/01/24 06:27:37;;;;;;;7.50;5.50;;;1.30;91.50;;;;;;5012213;28;20542;-87
2021/01/24 06:30:09;;;;;;;7.30;5.40;;;1.30;91.40;;;;;;5016371;28;20543;-83
2021/01/24 06:32:36;;;;;;;6.93;5.80;;;1.30;90.20;;;;;;5012386;28;20537;-83
2021/01/24 06:35:17;;;;;;;6.60;5.90;;;1.30;90.50;;;;;;5017231;28;20518;-83
2021/01/24 06:37:51;;;;;;;7.60;5.40;;;1.20;91.10;;;;;;5016660;28;20459;-85
2021/01/24 06:40:22;;;;;;;8.43;5.87;;;1.20;90.70;;;;;;5022181;28;20486;-84
2021/01/24 06:42:49;;;;;;;8.23;6.03;;;1.20;90.30;;;;;;5027051;28;20484;-88
2021/01/24 06:45:40;;;;;;;8.77;6.20;;;1.20;90.30;;;;;;5030189;28;21009;-86
2021/01/24 06:48:07;;;;;;;7.10;5.80;;;1.20;89.80;;;;;;5020257;28;20449;-84
2021/01/24 06:50:42;;;;;;;9.50;5.90;;;1.20;89.60;;;;;;5022348;28;20440;-84
2021/01/24 06:53:10;;;;;;;6.80;5.60;;;1.30;89.40;;;;;;5021044;28;20460;-86
2021/01/24 06:55:37;;;;;;;7.80;5.60;;;1.40;87.40;;;;;;5018028;28;20460;-86
2021/01/24 06:58:30;;;;;;;8.80;6.40;;;1.30;86.70;;;;;;5021520;28;20454;-86
2021/01/24 07:01:23;;;;;;;6.20;5.20;;;1.40;84.10;;;;;;5021643;28;20805;-85
2021/01/24 07:04:24;;;;;;;10.80;5.50;;;1.40;81.00;;;;;;5020209;28;20824;-85
2021/01/24 07:06:51;;;;;;;8.20;5.20;;;1.40;80.20;;;;;;5022626;28;20455;-87
2021/01/24 07:09:43;;;;;;;6.30;5.10;;;1.40;79.00;;;;;;5021639;28;20465;-84
2021/01/24 07:12:10;;;;;;;5.50;4.60;;;1.30;78.10;;;;;;5023422;28;20468;-84
2021/01/24 07:14:48;;;;;;;5.90;5.17;;;1.30;78.80;;;;;;5018798;28;20481;-85
2021/01/24 07:17:19;;;;;;;7.30;5.47;;;1.40;78.40;;;;;;5024864;28;20522;-87
2021/01/24 07:19:48;;;;;;;6.43;5.23;;;1.30;78.60;;;;;;5009536;28;20474;-86
2021/01/24 07:22:16;;;;;;;8.33;5.03;;;1.30;78.40;;;;;;5026380;28;20562;-86
2021/01/24 07:24:44;;;;;;;6.80;4.83;;;1.30;78.40;;;;;;5019849;28;20473;-86
2021/01/24 07:27:12;;;;;;;7.50;5.40;;;1.20;77.90;;;;;;5028543;28;20438;-88
2021/01/24 07:29:59;;;;;;;8.57;5.20;;;1.30;78.50;;;;;;5018765;28;20469;-86
2021/01/24 07:32:29;;;;;;;5.43;4.93;;;1.30;78.10;;;;;;5020485;28;20451;-83
2021/01/24 07:34:58;;;;;;;7.37;4.70;;;1.20;78.00;;;;;;5020380;28;20458;-87
2021/01/24 07:37:24;;;;;;;6.50;5.20;;;1.20;78.30;;;;;;5020160;28;20458;-86
2021/01/24 07:39:52;;;;;;;5.60;4.70;;;1.20;77.70;;;;;;5026496;28;20466;-86
2021/01/24 07:42:19;;;;;;;6.33;5.03;;;1.10;77.50;;;;;;5025999;28;20489;-84
2021/01/24 07:44:47;;;;;;;6.53;5.10;;;1.20;77.40;;;;;;5020719;28;20465;-85
2021/01/24 07:47:15;;;;;;;6.07;5.00;;;1.20;77.70;;;;;;5020465;28;20463;-85
2021/01/24 07:49:46;;;;;;;8.37;5.60;;;1.20;77.80;;;;;;5021661;28;20469;-84
2021/01/24 07:52:13;;;;;;;9.17;6.07;;;1.30;76.90;;;;;;5020264;28;20467;-86
2021/01/24 07:54:40;;;;;;;7.80;5.50;;;1.30;76.60;;;;;;5015621;28;20449;-85
2021/01/24 07:57:08;;;;;;;4.80;4.30;;;1.30;77.10;;;;;;5019114;28;20490;-85
2021/01/24 07:59:36;;;;;;;5.10;4.60;;;1.30;75.20;;;;;;5022595;28;20841;-85
2021/01/24 08:02:04;;;;;;;10.13;4.83;;;1.30;75.30;;;;;;5018583;28;20487;-84
2021/01/24 08:04:35;;;;;;;6.10;4.97;;;1.30;74.70;;;;;;5023030;28;20453;-86
2021/01/24 08:07:05;;;;;;;7.00;5.23;;;1.30;74.30;;;;;;5021562;28;20450;-87
2021/01/24 08:09:32;;;;;;;5.37;4.87;;;1.30;74.50;;;;;;5035316;28;20454;-85
2021/01/24 08:11:59;;;;;;;6.43;5.30;;;1.30;74.10;;;;;;5046831;28;20466;-86
2021/01/24 08:14:25;;;;;;;5.30;4.80;;;1.40;73.80;;;;;;5031939;28;20444;-86
2021/01/24 08:16:53;;;;;;;6.03;5.17;;;1.40;73.10;;;;;;5024436;28;20478;-84
2021/01/24 08:24:40;;;;;;;4.80;4.30;;;1.40;72.90;;;;;;5048918;28;20495;-80
2021/01/24 08:27:07;;;;;;;4.13;3.50;;;1.40;72.50;;;;;;5056463;28;20951;-81
2021/01/24 08:29:35;;;;;;;6.00;5.40;;;1.40;72.70;;;;;;5060659;28;20554;-82
2021/01/24 08:32:03;;;;;;;6.90;4.90;;;1.40;72.80;;;;;;5063840;28;20438;-81
2021/01/24 08:34:29;;;;;;;6.53;5.43;;;1.40;72.40;;;;;;5064317;28;20474;-82
2021/01/24 08:36:57;;;;;;;6.00;5.00;;;1.60;72.60;;;;;;5069169;28;20460;-80
2021/01/24 08:39:25;;;;;;;4.77;4.17;;;1.40;71.90;;;;;;5061383;28;20490;-82
2021/01/24 08:41:53;;;;;;;7.50;4.93;;;1.40;72.20;;;;;;5066422;28;20456;-81
2021/01/24 08:44:21;;;;;;;5.33;4.33;;;1.40;72.00;;;;;;5053817;28;20443;-80
2021/01/24 08:46:49;;;;;;;5.53;4.40;;;1.40;71.80;;;;;;5065629;28;20462;-83
2021/01/24 08:49:21;;;;;;;4.93;4.43;;;1.40;72.00;;;;;;5064540;28;20457;-79
2021/01/24 08:51:52;;;;;;;8.50;5.70;;;1.30;71.80;;;;;;5060698;28;20436;-79
2021/01/24 08:54:25;;;;;;;5.00;4.47;;;1.40;72.40;;;;;;5057784;28;20455;-80
2021/01/24 08:57:06;;;;;;;5.93;4.23;;;1.50;71.90;;;;;;5055083;28;20449;-81
2021/01/24 08:59:33;;;;;;;6.10;4.60;;;1.50;71.90;;;;;;5056627;28;20480;-83
2021/01/24 09:01:59;;;;;;;5.23;3.60;;;1.60;71.90;;;;;;5059957;28;20456;-80
2021/01/24 09:04:28;;;;;;;6.47;4.70;;;1.50;71.50;;;;;;5053730;28;20459;-81
2021/01/24 09:07:12;;;;;;;5.80;5.20;;;1.50;71.90;;;;;;5053528;28;20456;-79
2021/01/24 09:09:42;;;;;;;5.33;4.40;;;1.70;72.50;;;;;;5053700;28;20481;-78
2021/01/24 09:12:11;;;;;;;4.87;3.60;;;1.80;71.70;;;;;;5052720;28;21023;-79
2021/01/24 09:14:38;;;;;;;6.20;5.37;;;1.80;71.10;;;;;;5060692;28;20464;-80
2021/01/24 09:17:07;;;;;;;4.97;4.47;;;1.90;71.20;;;;;;5054396;28;20481;-78
2021/01/24 09:19:34;;;;;;;6.40;4.50;;;1.90;70.90;;;;;;5058294;28;20521;-81
2021/01/24 09:22:01;;;;;;;6.17;4.30;;;1.90;71.10;;;;;;5057888;28;20468;-79
2021/01/24 09:24:28;;;;;;;6.07;3.93;;;1.80;71.00;;;;;;5057930;28;20456;-82
2021/01/24 09:26:57;;;;;;;5.90;4.83;;;1.90;71.00;;;;;;5055259;28;20464;-79
2021/01/24 09:29:25;;;;;;;4.70;4.20;;;1.90;71.00;;;;;;5052025;28;20461;-82
2021/01/24 09:31:51;;;;;;;5.33;4.50;;;1.80;70.50;;;;;;5052084;28;20461;-81
2021/01/24 09:34:18;;;;;;;7.37;4.80;;;2.00;70.90;;;;;;5058049;28;20467;-81
2021/01/24 09:36:44;;;;;;;5.80;4.37;;;2.20;71.30;;;;;;5050687;28;20464;-79
2021/01/24 09:39:11;;;;;;;4.90;4.30;;;2.00;70.80;;;;;;5054622;28;20465;-79
2021/01/24 09:41:38;;;;;;;6.60;4.17;;;1.90;70.80;;;;;;5054003;28;20468;-81
2021/01/24 09:44:05;;;;;;;6.00;4.70;;;1.80;70.60;;;;;;5055064;28;20453;-83
2021/01/24 09:46:33;;;;;;;5.70;4.73;;;1.80;70.90;;;;;;5060748;28;20499;-82
2021/01/24 09:48:59;;;;;;;4.40;3.63;;;1.80;70.80;;;;;;5052431;28;20517;-82
2021/01/24 09:51:26;;;;;;;11.53;4.57;;;1.80;70.40;;;;;;5054850;28;20516;-79
2021/01/24 09:53:56;;;;;;;6.80;5.40;;;1.70;70.60;;;;;;5056663;28;20460;-82
2021/01/24 09:56:23;;;;;;;7.43;5.50;;;1.70;70.60;;;;;;5057552;28;20460;-82
2021/01/24 09:58:51;;;;;;;5.50;4.97;;;1.80;71.00;;;;;;5065581;28;20503;-82
2021/01/24 10:01:18;;;;;;;5.97;4.30;;;1.80;70.60;;;;;;5035185;28;20467;-79
2021/01/24 10:03:46;;;;;;;5.90;4.10;;;1.80;70.80;;;;;;5057848;28;20997;-83
2021/01/24 10:06:12;;;;;;;6.90;3.60;;;1.80;70.50;;;;;;5056787;28;20498;-82
2021/01/24 10:08:39;;;;;;;5.77;4.30;;;1.80;70.30;;;;;;5054343;28;20450;-81
2021/01/24 10:11:05;;;;;;;8.93;4.93;;;1.80;70.40;;;;;;5059313;28;20444;-80
2021/01/24 10:13:32;;;;;;;6.10;5.07;;;1.80;70.20;;;;;;5055604;28;20461;-79
2021/01/24 10:15:59;;;;;;;6.23;4.70;;;1.80;70.30;;;;;;5061163;28;20476;-83
2021/01/24 10:18:26;;;;;;;9.50;5.10;;;1.80;70.10;;;;;;5059119;28;20480;-84
2021/01/24 10:20:54;;;;;;;5.30;4.80;;;1.90;70.30;;;;;;5072431;28;20539;-85
2021/01/24 10:23:22;;;;;;;5.53;4.87;;;2.20;70.40;;;;;;5068559;28;20493;-83
2021/01/24 10:25:49;;;;;;;6.10;4.80;;;2.20;69.90;;;;;;5069685;28;20433;-87
2021/01/24 10:28:16;;;;;;;4.50;4.00;;;2.20;70.30;;;;;;5052560;28;20448;-83
2021/01/24 10:30:43;;;;;;;4.77;4.17;;;1.90;69.50;;;;;;5069839;28;20455;-84
2021/01/24 10:33:11;;;;;;;6.10;4.50;;;1.90;70.20;;;;;;5066844;28;21034;-82
2021/01/24 10:35:37;;;;;;;7.50;5.20;;;1.90;70.70;;;;;;5070613;28;20452;-83
2021/01/24 10:38:05;;;;;;;5.80;5.00;;;2.00;70.60;;;;;;5065129;28;20460;-84
2021/01/24 10:40:33;;;;;;;5.63;4.57;;;2.00;70.60;;;;;;5070885;28;20492;-85
2021/01/24 10:42:59;;;;;;;5.00;4.50;;;2.00;70.10;;;;;;5066332;28;20449;-83
2021/01/24 10:45:26;;;;;;;6.27;4.30;;;2.10;70.50;;;;;;5069420;28;20529;-83
2021/01/24 10:47:54;;;;;;;8.13;4.70;;;2.10;70.60;;;;;;5067223;28;20453;-82
2021/01/24 10:50:21;;;;;;;5.03;4.43;;;2.30;70.70;;;;;;5063890;28;20449;-85
2021/01/24 10:52:47;;;;;;;4.83;4.37;;;2.30;71.30;;;;;;5072200;28;20451;-86
2021/01/24 10:55:15;;;;;;;5.40;4.60;;;2.20;70.70;;;;;;5069460;28;20452;-82
2021/01/24 10:57:41;;;;;;;5.20;3.90;;;2.20;71.10;;;;;;5074062;28;20446;-85
2021/01/24 11:00:09;;;;;;;5.67;4.70;;;2.20;71.40;;;;;;5066501;28;20468;-83
2021/01/24 11:02:37;;;;;;;5.00;4.30;;;2.20;71.80;;;;;;5066649;28;20456;-86
2021/01/24 11:05:04;;;;;;;6.83;5.03;;;2.20;71.90;;;;;;5068143;28;20490;-85
2021/01/24 11:07:31;;;;;;;5.23;4.53;;;2.20;72.20;;;;;;5070676;28;20512;-85
2021/01/24 11:09:58;;;;;;;4.97;4.47;;;2.10;71.90;;;;;;5063208;28;20460;-83
2021/01/24 11:12:26;;;;;;;6.53;5.60;;;2.00;72.00;;;;;;5067064;28;20469;-84
2021/01/24 11:14:53;;;;;;;4.77;4.30;;;1.90;72.40;;;;;;5073226;28;20471;-83
2021/01/24 11:17:19;;;;;;;5.47;4.70;;;1.80;72.10;;;;;;5074991;28;20475;-85
2021/01/24 11:19:50;;;;;;;5.20;4.40;;;1.80;72.90;;;;;;5070540;28;20480;-84
2021/01/24 11:22:17;;;;;;;5.47;4.83;;;1.80;73.10;;;;;;5069542;28;20473;-85
2021/01/24 11:24:44;;;;;;;5.60;4.80;;;1.80;73.10;;;;;;5070777;28;20461;-83
2021/01/24 11:27:11;;;;;;;5.57;5.07;;;1.70;73.50;;;;;;5073413;28;20453;-83
2021/01/24 11:29:39;;;;;;;5.40;4.70;;;1.80;73.70;;;;;;5074501;28;20471;-84
2021/01/24 11:32:07;;;;;;;6.40;4.93;;;1.70;74.00;;;;;;5064335;28;20507;-85
2021/01/24 11:34:34;;;;;;;5.90;5.13;;;1.70;75.20;;;;;;5071158;28;20459;-85
2021/01/24 11:37:00;;;;;;;5.83;5.27;;;1.60;74.80;;;;;;5066376;28;20539;-85
2021/01/24 11:39:27;;;;;;;6.27;5.30;;;1.50;75.60;;;;;;5065020;28;20541;-84
2021/01/24 11:41:54;;;;;;;6.30;4.97;;;1.50;76.60;;;;;;5067104;28;20551;-84
2021/01/24 11:44:20;;;;;;;6.30;5.00;;;1.40;77.40;;;;;;5061244;28;20438;-83
2021/01/24 11:46:48;;;;;;;9.67;5.30;;;1.50;79.00;;;;;;5062178;28;20447;-85
2021/01/24 11:49:14;;;;;;;5.87;4.60;;;1.40;79.60;;;;;;5064047;28;20452;-81
2021/01/24 11:51:41;;;;;;;5.17;4.60;;;1.30;79.70;;;;;;5063748;28;20445;-85
2021/01/24 11:54:10;;;;;;;7.10;5.43;;;1.30;82.10;;;;;;5057822;28;20547;-87
2021/01/24 11:56:37;;;;;;;6.33;4.97;;;1.30;83.10;;;;;;5069418;28;20495;-85
2021/01/24 11:59:06;;;;;;;6.07;5.47;;;1.30;82.80;;;;;;5071902;28;20473;-83
2021/01/24 12:01:33;;;;;;;7.73;5.13;;;1.20;84.90;;;;;;5063568;28;20493;-83
2021/01/24 12:04:00;;;;;;;6.50;5.40;;;1.20;85.60;;;;;;5071387;28;20482;-84
2021/01/24 12:06:27;;;;;;;5.37;4.87;;;1.20;87.00;;;;;;5073455;28;20446;-84
2021/01/24 12:08:54;;;;;;;5.63;5.10;;;1.20;85.60;;;;;;5074902;28;20474;-84
2021/01/24 12:11:22;;;;;;;5.67;5.17;;;1.00;86.40;;;;;;5053663;28;21019;-87
2021/01/24 12:14:03;;;;;;;6.37;4.80;;;1.00;88.60;;;;;;5069794;28;20591;-87
2021/01/24 12:16:30;;;;;;;7.73;6.10;;;0.90;89.40;;;;;;5053875;28;20461;-86
2021/01/24 12:18:59;;;;;;;6.53;4.97;;;1.00;90.40;;;;;;5081823;28;20561;-84
2021/01/24 12:24:15;;;;;;;6.70;5.73;;;1.00;90.30;;;;;;5074028;28;20458;-84
2021/01/24 12:26:54;;;;;;;7.00;6.30;;;0.90;90.70;;;;;;5076578;28;20454;-89
2021/01/24 12:34:04;;;;;;;5.13;4.63;;;1.00;90.60;;;;;;4916131;29;20466;-91
2021/01/24 13:05:23;;;;;;;8.37;6.40;;;0.90;90.80;;;;;;5050090;28;20524;-88
2021/01/24 13:07:51;;;;;;;7.57;6.37;;;0.90;90.80;;;;;;5069256;28;20435;-86
2021/01/24 13:10:17;;;;;;;6.70;5.60;;;0.90;91.00;;;;;;5070196;28;20467;-86
2021/01/24 13:12:44;;;;;;;8.07;6.80;;;0.90;91.90;;;;;;5072403;28;20467;-85
2021/01/24 13:15:12;;;;;;;5.03;4.07;;;0.90;92.50;;;;;;5058962;28;20448;-86
2021/01/24 13:17:39;;;;;;;6.60;5.47;;;0.70;91.10;;;;;;5067090;28;20448;-87
2021/01/24 13:20:08;;;;;;;6.83;6.13;;;0.70;91.20;;;;;;5065453;28;20470;-86
2021/01/24 13:22:35;;;;;;;8.17;6.70;;;0.80;92.60;;;;;;5077839;28;20543;-87
2021/01/24 13:25:02;;;;;;;6.87;6.20;;;0.80;92.20;;;;;;5067227;28;20495;-86
2021/01/24 13:27:29;;;;;;;5.70;5.10;;;0.90;91.70;;;;;;5066349;28;20444;-87
2021/01/24 13:29:56;;;;;;;8.43;6.67;;;0.80;90.30;;;;;;5047185;28;20450;-85
2021/01/24 13:32:23;;;;;;;7.87;6.50;;;0.90;91.50;;;;;;5061683;28;20536;-83
2021/01/24 13:34:50;;;;;;;9.47;6.30;;;1.00;91.70;;;;;;5068693;28;20442;-86